sensor_id;sensor_type;location;lat;lon;timestamp;P1;durP1;ratioP1;P2;durP2;ratioP2
49472;SDS011;67434;50.956;6.918;2023-05-14T00:00:21;15.95;;;11.52;;
49472;SDS011;67434;50.956;6.918;2023-05-14T00:02:46;14.45;;;11.00;;
49472;SDS011;67434;50.956;6.918;2023-05-14T00:05:11;16.13;;;11.07;;
49472;SDS011;67434;50.956;6.918;2023-05-14T00:07:37;14.68;;;11.27;;
49472;SDS011;67434;50.956;6.918;2023-05-14T00:10:02;14.43;;;11.57;;
49472;SDS011;67434;50.956;6.918;2023-05-14T00:12:28;17.25;;;10.57;;
49472;SDS011;67434;50.956;6.918;2023-05-14T00:14:54;16.15;;;11.63;;
49472;SDS011;67434;50.956;6.918;2023-05-14T00:17:19;13.98;;;11.23;;
49472;SDS011;67434;50.956;6.918;2023-05-14T00:19:45;19.90;;;12.30;;
49472;SDS011;67434;50.956;6.918;2023-05-14T00:22:10;23.83;;;13.80;;
49472;SDS011;67434;50.956;6.918;2023-05-14T00:24:35;23.67;;;15.25;;
49472;SDS011;67434;50.956;6.918;2023-05-14T00:27:01;24.48;;;14.63;;
49472;SDS011;67434;50.956;6.918;2023-05-14T00:29:27;20.08;;;14.23;;
49472;SDS011;67434;50.956;6.918;2023-05-14T00:31:52;20.67;;;13.02;;
49472;SDS011;67434;50.956;6.918;2023-05-14T00:34:17;19.70;;;13.88;;
49472;SDS011;67434;50.956;6.918;2023-05-14T00:36:43;22.63;;;14.75;;
49472;SDS011;67434;50.956;6.918;2023-05-14T00:39:08;20.88;;;14.15;;
49472;SDS011;67434;50.956;6.918;2023-05-14T00:41:34;20.80;;;13.18;;
49472;SDS011;67434;50.956;6.918;2023-05-14T00:43:59;19.95;;;13.27;;
49472;SDS011;67434;50.956;6.918;2023-05-14T00:46:25;21.52;;;12.60;;
49472;SDS011;67434;50.956;6.918;2023-05-14T00:48:52;18.33;;;12.60;;
49472;SDS011;67434;50.956;6.918;2023-05-14T00:51:17;24.08;;;12.98;;
49472;SDS011;67434;50.956;6.918;2023-05-14T00:53:44;17.63;;;11.77;;
49472;SDS011;67434;50.956;6.918;2023-05-14T00:56:10;20.92;;;12.98;;
49472;SDS011;67434;50.956;6.918;2023-05-14T00:58:36;14.70;;;11.38;;
49472;SDS011;67434;50.956;6.918;2023-05-14T01:01:01;20.45;;;11.55;;
49472;SDS011;67434;50.956;6.918;2023-05-14T01:03:28;25.15;;;11.48;;
49472;SDS011;67434;50.956;6.918;2023-05-14T01:05:57;15.02;;;10.27;;
49472;SDS011;67434;50.956;6.918;2023-05-14T01:11:35;14.38;;;9.63;;
49472;SDS011;67434;50.956;6.918;2023-05-14T01:16:48;13.10;;;9.77;;
49472;SDS011;67434;50.956;6.918;2023-05-14T01:19:32;14.13;;;9.57;;
49472;SDS011;67434;50.956;6.918;2023-05-14T01:21:58;13.82;;;10.10;;
49472;SDS011;67434;50.956;6.918;2023-05-14T01:24:23;15.77;;;10.50;;
49472;SDS011;67434;50.956;6.918;2023-05-14T01:26:48;12.88;;;10.02;;
49472;SDS011;67434;50.956;6.918;2023-05-14T01:29:15;13.07;;;9.43;;
49472;SDS011;67434;50.956;6.918;2023-05-14T01:31:45;11.60;;;9.52;;
49472;SDS011;67434;50.956;6.918;2023-05-14T01:34:13;13.48;;;10.52;;
49472;SDS011;67434;50.956;6.918;2023-05-14T01:36:40;20.38;;;10.20;;
49472;SDS011;67434;50.956;6.918;2023-05-14T01:39:06;14.68;;;10.35;;
49472;SDS011;67434;50.956;6.918;2023-05-14T01:41:34;13.05;;;9.45;;
49472;SDS011;67434;50.956;6.918;2023-05-14T01:44:00;12.63;;;10.38;;
49472;SDS011;67434;50.956;6.918;2023-05-14T01:46:29;13.45;;;10.73;;
49472;SDS011;67434;50.956;6.918;2023-05-14T01:48:58;16.80;;;10.07;;
49472;SDS011;67434;50.956;6.918;2023-05-14T01:51:23;15.02;;;10.00;;
49472;SDS011;67434;50.956;6.918;2023-05-14T01:53:49;12.13;;;9.85;;
49472;SDS011;67434;50.956;6.918;2023-05-14T01:56:15;14.43;;;10.57;;
49472;SDS011;67434;50.956;6.918;2023-05-14T01:58:41;15.20;;;10.80;;
49472;SDS011;67434;50.956;6.918;2023-05-14T02:01:07;19.67;;;11.57;;
49472;SDS011;67434;50.956;6.918;2023-05-14T02:03:32;16.02;;;9.90;;
49472;SDS011;67434;50.956;6.918;2023-05-14T02:05:57;14.00;;;9.82;;
49472;SDS011;67434;50.956;6.918;2023-05-14T02:08:23;13.50;;;10.10;;
49472;SDS011;67434;50.956;6.918;2023-05-14T02:10:48;13.88;;;10.80;;
49472;SDS011;67434;50.956;6.918;2023-05-14T02:13:13;16.63;;;10.75;;
49472;SDS011;67434;50.956;6.918;2023-05-14T02:15:39;13.43;;;9.93;;
49472;SDS011;67434;50.956;6.918;2023-05-14T02:18:04;14.00;;;11.15;;
49472;SDS011;67434;50.956;6.918;2023-05-14T02:20:30;15.10;;;9.80;;
49472;SDS011;67434;50.956;6.918;2023-05-14T02:22:55;12.63;;;9.80;;
49472;SDS011;67434;50.956;6.918;2023-05-14T02:25:21;13.43;;;9.77;;
49472;SDS011;67434;50.956;6.918;2023-05-14T02:27:46;13.80;;;11.05;;
49472;SDS011;67434;50.956;6.918;2023-05-14T02:30:11;13.13;;;9.70;;
49472;SDS011;67434;50.956;6.918;2023-05-14T02:32:37;13.63;;;10.65;;
49472;SDS011;67434;50.956;6.918;2023-05-14T02:35:02;10.48;;;9.25;;
49472;SDS011;67434;50.956;6.918;2023-05-14T02:37:28;12.73;;;9.52;;
49472;SDS011;67434;50.956;6.918;2023-05-14T02:39:53;14.10;;;9.63;;
49472;SDS011;67434;50.956;6.918;2023-05-14T02:42:19;12.43;;;9.43;;
49472;SDS011;67434;50.956;6.918;2023-05-14T02:44:44;11.85;;;9.30;;
49472;SDS011;67434;50.956;6.918;2023-05-14T02:47:09;16.48;;;10.13;;
49472;SDS011;67434;50.956;6.918;2023-05-14T02:49:35;13.20;;;9.48;;
49472;SDS011;67434;50.956;6.918;2023-05-14T02:52:00;13.05;;;9.20;;
49472;SDS011;67434;50.956;6.918;2023-05-14T02:54:25;11.00;;;9.38;;
49472;SDS011;67434;50.956;6.918;2023-05-14T02:56:51;13.57;;;9.50;;
49472;SDS011;67434;50.956;6.918;2023-05-14T02:59:16;14.68;;;8.90;;
49472;SDS011;67434;50.956;6.918;2023-05-14T03:01:42;14.25;;;10.15;;
49472;SDS011;67434;50.956;6.918;2023-05-14T03:04:08;10.52;;;8.88;;
49472;SDS011;67434;50.956;6.918;2023-05-14T03:06:33;11.82;;;8.40;;
49472;SDS011;67434;50.956;6.918;2023-05-14T03:08:58;14.02;;;9.07;;
49472;SDS011;67434;50.956;6.918;2023-05-14T03:11:24;11.02;;;8.38;;
49472;SDS011;67434;50.956;6.918;2023-05-14T03:13:49;13.55;;;8.80;;
49472;SDS011;67434;50.956;6.918;2023-05-14T03:16:25;12.43;;;8.60;;
49472;SDS011;67434;50.956;6.918;2023-05-14T03:18:51;13.27;;;8.02;;
49472;SDS011;67434;50.956;6.918;2023-05-14T03:21:16;11.65;;;7.75;;
49472;SDS011;67434;50.956;6.918;2023-05-14T03:23:41;10.57;;;8.40;;
49472;SDS011;67434;50.956;6.918;2023-05-14T03:26:07;10.85;;;8.15;;
49472;SDS011;67434;50.956;6.918;2023-05-14T03:28:32;12.05;;;8.25;;
49472;SDS011;67434;50.956;6.918;2023-05-14T03:30:57;9.75;;;8.40;;
49472;SDS011;67434;50.956;6.918;2023-05-14T03:33:23;10.30;;;8.13;;
49472;SDS011;67434;50.956;6.918;2023-05-14T03:35:48;11.65;;;8.73;;
49472;SDS011;67434;50.956;6.918;2023-05-14T03:38:14;10.18;;;7.53;;
49472;SDS011;67434;50.956;6.918;2023-05-14T03:40:39;13.63;;;8.20;;
49472;SDS011;67434;50.956;6.918;2023-05-14T03:43:04;10.27;;;7.80;;
49472;SDS011;67434;50.956;6.918;2023-05-14T03:45:30;12.05;;;8.60;;
49472;SDS011;67434;50.956;6.918;2023-05-14T03:47:56;12.85;;;8.40;;
49472;SDS011;67434;50.956;6.918;2023-05-14T03:50:21;9.80;;;8.07;;
49472;SDS011;67434;50.956;6.918;2023-05-14T03:52:49;10.27;;;7.65;;
49472;SDS011;67434;50.956;6.918;2023-05-14T03:55:16;11.65;;;8.50;;
49472;SDS011;67434;50.956;6.918;2023-05-14T03:57:43;10.70;;;8.27;;
49472;SDS011;67434;50.956;6.918;2023-05-14T04:00:08;9.57;;;8.50;;
49472;SDS011;67434;50.956;6.918;2023-05-14T04:02:34;11.57;;;6.85;;
49472;SDS011;67434;50.956;6.918;2023-05-14T04:05:00;15.80;;;7.75;;
49472;SDS011;67434;50.956;6.918;2023-05-14T04:07:25;13.23;;;8.70;;
49472;SDS011;67434;50.956;6.918;2023-05-14T04:09:50;9.15;;;7.65;;
49472;SDS011;67434;50.956;6.918;2023-05-14T04:12:16;10.02;;;8.73;;
49472;SDS011;67434;50.956;6.918;2023-05-14T04:14:41;11.32;;;8.68;;
49472;SDS011;67434;50.956;6.918;2023-05-14T04:17:06;13.68;;;7.90;;
49472;SDS011;67434;50.956;6.918;2023-05-14T04:19:32;9.88;;;8.18;;
49472;SDS011;67434;50.956;6.918;2023-05-14T04:21:57;10.10;;;7.82;;
49472;SDS011;67434;50.956;6.918;2023-05-14T04:24:22;9.95;;;7.32;;
49472;SDS011;67434;50.956;6.918;2023-05-14T04:26:47;11.18;;;8.25;;
49472;SDS011;67434;50.956;6.918;2023-05-14T04:29:13;8.98;;;7.63;;
49472;SDS011;67434;50.956;6.918;2023-05-14T04:31:38;8.80;;;7.75;;
49472;SDS011;67434;50.956;6.918;2023-05-14T04:34:04;9.55;;;7.38;;
49472;SDS011;67434;50.956;6.918;2023-05-14T04:36:29;9.00;;;7.82;;
49472;SDS011;67434;50.956;6.918;2023-05-14T04:38:55;9.02;;;8.02;;
49472;SDS011;67434;50.956;6.918;2023-05-14T04:41:20;11.90;;;8.40;;
49472;SDS011;67434;50.956;6.918;2023-05-14T04:43:48;10.25;;;8.48;;
49472;SDS011;67434;50.956;6.918;2023-05-14T04:46:23;8.98;;;7.25;;
49472;SDS011;67434;50.956;6.918;2023-05-14T04:48:48;9.73;;;7.45;;
49472;SDS011;67434;50.956;6.918;2023-05-14T04:51:15;9.95;;;7.88;;
49472;SDS011;67434;50.956;6.918;2023-05-14T04:53:41;11.65;;;7.97;;
49472;SDS011;67434;50.956;6.918;2023-05-14T04:56:06;11.90;;;9.18;;
49472;SDS011;67434;50.956;6.918;2023-05-14T04:58:31;11.18;;;8.68;;
49472;SDS011;67434;50.956;6.918;2023-05-14T05:00:57;14.02;;;8.48;;
49472;SDS011;67434;50.956;6.918;2023-05-14T05:03:23;11.38;;;7.90;;
49472;SDS011;67434;50.956;6.918;2023-05-14T05:05:49;12.48;;;8.70;;
49472;SDS011;67434;50.956;6.918;2023-05-14T05:08:14;10.23;;;7.78;;
49472;SDS011;67434;50.956;6.918;2023-05-14T05:10:40;11.05;;;8.50;;
49472;SDS011;67434;50.956;6.918;2023-05-14T05:13:24;10.65;;;7.10;;
49472;SDS011;67434;50.956;6.918;2023-05-14T05:15:49;8.85;;;7.28;;
49472;SDS011;67434;50.956;6.918;2023-05-14T05:18:15;12.95;;;8.63;;
49472;SDS011;67434;50.956;6.918;2023-05-14T05:20:40;8.82;;;7.82;;
49472;SDS011;67434;50.956;6.918;2023-05-14T05:23:05;9.70;;;8.70;;
49472;SDS011;67434;50.956;6.918;2023-05-14T05:25:31;10.00;;;7.65;;
49472;SDS011;67434;50.956;6.918;2023-05-14T05:27:59;13.77;;;8.75;;
49472;SDS011;67434;50.956;6.918;2023-05-14T05:30:25;9.65;;;8.10;;
49472;SDS011;67434;50.956;6.918;2023-05-14T05:32:50;9.75;;;8.07;;
49472;SDS011;67434;50.956;6.918;2023-05-14T05:35:15;11.40;;;7.65;;
49472;SDS011;67434;50.956;6.918;2023-05-14T05:37:41;13.05;;;8.88;;
49472;SDS011;67434;50.956;6.918;2023-05-14T05:40:07;10.00;;;7.80;;
49472;SDS011;67434;50.956;6.918;2023-05-14T05:42:33;11.27;;;8.23;;
49472;SDS011;67434;50.956;6.918;2023-05-14T05:44:58;10.15;;;8.50;;
49472;SDS011;67434;50.956;6.918;2023-05-14T05:47:23;10.43;;;8.55;;
49472;SDS011;67434;50.956;6.918;2023-05-14T05:49:49;11.45;;;8.35;;
49472;SDS011;67434;50.956;6.918;2023-05-14T05:52:14;13.52;;;9.18;;
49472;SDS011;67434;50.956;6.918;2023-05-14T05:54:40;12.48;;;9.05;;
49472;SDS011;67434;50.956;6.918;2023-05-14T05:57:05;11.38;;;8.90;;
49472;SDS011;67434;50.956;6.918;2023-05-14T05:59:30;12.00;;;9.57;;
49472;SDS011;67434;50.956;6.918;2023-05-14T06:01:56;13.20;;;10.38;;
49472;SDS011;67434;50.956;6.918;2023-05-14T06:04:21;11.77;;;9.27;;
49472;SDS011;67434;50.956;6.918;2023-05-14T06:06:48;14.52;;;10.25;;
49472;SDS011;67434;50.956;6.918;2023-05-14T06:09:13;13.23;;;10.63;;
49472;SDS011;67434;50.956;6.918;2023-05-14T06:11:39;14.52;;;10.35;;
49472;SDS011;67434;50.956;6.918;2023-05-14T06:14:05;13.65;;;10.15;;
49472;SDS011;67434;50.956;6.918;2023-05-14T06:16:30;13.77;;;10.10;;
49472;SDS011;67434;50.956;6.918;2023-05-14T06:18:56;14.38;;;10.40;;
49472;SDS011;67434;50.956;6.918;2023-05-14T06:21:21;15.77;;;10.82;;
49472;SDS011;67434;50.956;6.918;2023-05-14T06:23:46;15.70;;;10.45;;
49472;SDS011;67434;50.956;6.918;2023-05-14T06:26:12;15.30;;;10.27;;
49472;SDS011;67434;50.956;6.918;2023-05-14T06:28:37;19.90;;;12.82;;
49472;SDS011;67434;50.956;6.918;2023-05-14T06:31:02;14.15;;;11.00;;
49472;SDS011;67434;50.956;6.918;2023-05-14T06:33:28;16.98;;;10.88;;
49472;SDS011;67434;50.956;6.918;2023-05-14T06:36:02;14.52;;;10.40;;
49472;SDS011;67434;50.956;6.918;2023-05-14T06:38:29;12.70;;;10.27;;
49472;SDS011;67434;50.956;6.918;2023-05-14T06:40:54;16.13;;;10.82;;
49472;SDS011;67434;50.956;6.918;2023-05-14T06:43:32;14.25;;;10.35;;
49472;SDS011;67434;50.956;6.918;2023-05-14T06:45:57;17.90;;;11.02;;
49472;SDS011;67434;50.956;6.918;2023-05-14T06:48:25;15.75;;;10.00;;
49472;SDS011;67434;50.956;6.918;2023-05-14T06:50:53;13.27;;;10.55;;
49472;SDS011;67434;50.956;6.918;2023-05-14T06:53:19;14.18;;;10.70;;
49472;SDS011;67434;50.956;6.918;2023-05-14T06:55:48;16.05;;;12.23;;
49472;SDS011;67434;50.956;6.918;2023-05-14T06:58:13;13.27;;;9.95;;
49472;SDS011;67434;50.956;6.918;2023-05-14T07:00:39;14.50;;;10.13;;
49472;SDS011;67434;50.956;6.918;2023-05-14T07:03:04;13.75;;;10.20;;
49472;SDS011;67434;50.956;6.918;2023-05-14T07:05:30;13.70;;;10.30;;
49472;SDS011;67434;50.956;6.918;2023-05-14T07:07:55;12.73;;;9.88;;
49472;SDS011;67434;50.956;6.918;2023-05-14T07:10:20;15.75;;;10.82;;
49472;SDS011;67434;50.956;6.918;2023-05-14T07:12:47;12.48;;;10.43;;
49472;SDS011;67434;50.956;6.918;2023-05-14T07:15:16;16.00;;;12.27;;
49472;SDS011;67434;50.956;6.918;2023-05-14T07:17:41;18.27;;;12.93;;
49472;SDS011;67434;50.956;6.918;2023-05-14T07:20:06;17.40;;;11.35;;
49472;SDS011;67434;50.956;6.918;2023-05-14T07:22:32;13.63;;;10.60;;
49472;SDS011;67434;50.956;6.918;2023-05-14T07:24:59;12.02;;;10.32;;
49472;SDS011;67434;50.956;6.918;2023-05-14T07:27:24;16.25;;;11.13;;
49472;SDS011;67434;50.956;6.918;2023-05-14T07:29:50;14.05;;;11.15;;
49472;SDS011;67434;50.956;6.918;2023-05-14T07:32:15;14.18;;;11.15;;
49472;SDS011;67434;50.956;6.918;2023-05-14T07:34:40;13.80;;;11.27;;
49472;SDS011;67434;50.956;6.918;2023-05-14T07:37:06;14.73;;;10.65;;
49472;SDS011;67434;50.956;6.918;2023-05-14T07:39:31;12.45;;;9.70;;
49472;SDS011;67434;50.956;6.918;2023-05-14T07:41:57;11.90;;;9.32;;
49472;SDS011;67434;50.956;6.918;2023-05-14T07:44:22;15.73;;;9.27;;
49472;SDS011;67434;50.956;6.918;2023-05-14T07:46:47;10.40;;;8.27;;
49472;SDS011;67434;50.956;6.918;2023-05-14T07:49:13;9.68;;;7.78;;
49472;SDS011;67434;50.956;6.918;2023-05-14T07:51:38;8.85;;;6.72;;
49472;SDS011;67434;50.956;6.918;2023-05-14T07:54:05;11.40;;;8.80;;
49472;SDS011;67434;50.956;6.918;2023-05-14T07:56:30;11.98;;;7.47;;
49472;SDS011;67434;50.956;6.918;2023-05-14T07:58:56;8.38;;;7.13;;
49472;SDS011;67434;50.956;6.918;2023-05-14T08:01:21;11.63;;;7.93;;
49472;SDS011;67434;50.956;6.918;2023-05-14T08:03:47;9.82;;;7.25;;
49472;SDS011;67434;50.956;6.918;2023-05-14T08:06:12;8.50;;;6.55;;
49472;SDS011;67434;50.956;6.918;2023-05-14T08:08:38;7.30;;;6.57;;
49472;SDS011;67434;50.956;6.918;2023-05-14T08:11:03;9.52;;;6.70;;
49472;SDS011;67434;50.956;6.918;2023-05-14T08:13:29;7.57;;;5.88;;
49472;SDS011;67434;50.956;6.918;2023-05-14T08:15:54;9.38;;;6.10;;
49472;SDS011;67434;50.956;6.918;2023-05-14T08:18:20;7.55;;;5.78;;
49472;SDS011;67434;50.956;6.918;2023-05-14T08:20:45;8.25;;;5.72;;
49472;SDS011;67434;50.956;6.918;2023-05-14T08:23:11;8.65;;;6.82;;
49472;SDS011;67434;50.956;6.918;2023-05-14T08:25:36;7.82;;;5.70;;
49472;SDS011;67434;50.956;6.918;2023-05-14T08:28:02;6.03;;;4.82;;
49472;SDS011;67434;50.956;6.918;2023-05-14T08:30:28;5.68;;;4.63;;
49472;SDS011;67434;50.956;6.918;2023-05-14T08:32:53;5.68;;;4.75;;
49472;SDS011;67434;50.956;6.918;2023-05-14T08:35:18;5.68;;;4.32;;
49472;SDS011;67434;50.956;6.918;2023-05-14T08:37:46;6.45;;;5.20;;
49472;SDS011;67434;50.956;6.918;2023-05-14T08:40:13;4.20;;;3.75;;
49472;SDS011;67434;50.956;6.918;2023-05-14T08:42:38;5.88;;;4.05;;
49472;SDS011;67434;50.956;6.918;2023-05-14T08:47:37;12.35;;;4.10;;
49472;SDS011;67434;50.956;6.918;2023-05-14T08:50:03;8.35;;;4.25;;
49472;SDS011;67434;50.956;6.918;2023-05-14T08:52:31;7.32;;;4.30;;
49472;SDS011;67434;50.956;6.918;2023-05-14T08:55:02;9.40;;;3.70;;
49472;SDS011;67434;50.956;6.918;2023-05-14T08:57:29;3.75;;;3.28;;
49472;SDS011;67434;50.956;6.918;2023-05-14T08:59:56;3.30;;;3.00;;
49472;SDS011;67434;50.956;6.918;2023-05-14T09:02:23;3.70;;;2.42;;
49472;SDS011;67434;50.956;6.918;2023-05-14T09:04:53;3.22;;;2.92;;
49472;SDS011;67434;50.956;6.918;2023-05-14T09:07:20;3.53;;;2.70;;
49472;SDS011;67434;50.956;6.918;2023-05-14T09:09:46;3.38;;;2.58;;
49472;SDS011;67434;50.956;6.918;2023-05-14T09:12:12;5.95;;;3.13;;
49472;SDS011;67434;50.956;6.918;2023-05-14T09:14:37;3.25;;;2.80;;
49472;SDS011;67434;50.956;6.918;2023-05-14T09:17:03;2.88;;;2.38;;
49472;SDS011;67434;50.956;6.918;2023-05-14T09:19:28;3.22;;;2.92;;
49472;SDS011;67434;50.956;6.918;2023-05-14T09:21:55;3.40;;;2.92;;
49472;SDS011;67434;50.956;6.918;2023-05-14T09:24:23;2.88;;;2.20;;
49472;SDS011;67434;50.956;6.918;2023-05-14T09:26:51;4.13;;;2.97;;
49472;SDS011;67434;50.956;6.918;2023-05-14T09:29:17;3.42;;;3.13;;
49472;SDS011;67434;50.956;6.918;2023-05-14T09:31:43;5.93;;;3.55;;
49472;SDS011;67434;50.956;6.918;2023-05-14T09:34:08;4.35;;;2.92;;
49472;SDS011;67434;50.956;6.918;2023-05-14T09:36:33;2.97;;;2.60;;
49472;SDS011;67434;50.956;6.918;2023-05-14T09:38:59;2.88;;;2.17;;
49472;SDS011;67434;50.956;6.918;2023-05-14T09:41:27;4.60;;;2.80;;
49472;SDS011;67434;50.956;6.918;2023-05-14T09:43:52;4.45;;;2.55;;
49472;SDS011;67434;50.956;6.918;2023-05-14T09:46:18;3.17;;;2.60;;
49472;SDS011;67434;50.956;6.918;2023-05-14T09:48:44;3.78;;;2.72;;
49472;SDS011;67434;50.956;6.918;2023-05-14T09:51:10;3.85;;;2.55;;
49472;SDS011;67434;50.956;6.918;2023-05-14T09:53:35;3.72;;;2.47;;
49472;SDS011;67434;50.956;6.918;2023-05-14T09:56:01;5.43;;;3.47;;
49472;SDS011;67434;50.956;6.918;2023-05-14T09:58:26;3.85;;;2.65;;
49472;SDS011;67434;50.956;6.918;2023-05-14T10:00:53;3.10;;;2.80;;
49472;SDS011;67434;50.956;6.918;2023-05-14T10:03:21;5.05;;;4.07;;
49472;SDS011;67434;50.956;6.918;2023-05-14T10:05:49;5.70;;;4.82;;
49472;SDS011;67434;50.956;6.918;2023-05-14T10:08:18;5.63;;;4.30;;
49472;SDS011;67434;50.956;6.918;2023-05-14T10:10:55;5.63;;;5.13;;
49472;SDS011;67434;50.956;6.918;2023-05-14T10:13:23;5.50;;;4.40;;
49472;SDS011;67434;50.956;6.918;2023-05-14T10:15:56;7.95;;;5.03;;
49472;SDS011;67434;50.956;6.918;2023-05-14T10:18:30;6.95;;;3.80;;
49472;SDS011;67434;50.956;6.918;2023-05-14T10:21:25;4.85;;;4.30;;
49472;SDS011;67434;50.956;6.918;2023-05-14T10:23:55;5.22;;;4.72;;
49472;SDS011;67434;50.956;6.918;2023-05-14T10:26:22;6.38;;;5.25;;
49472;SDS011;67434;50.956;6.918;2023-05-14T10:28:47;7.10;;;5.68;;
49472;SDS011;67434;50.956;6.918;2023-05-14T10:31:13;6.70;;;5.82;;
49472;SDS011;67434;50.956;6.918;2023-05-14T10:33:45;7.05;;;6.18;;
49472;SDS011;67434;50.956;6.918;2023-05-14T10:36:13;7.32;;;6.13;;
49472;SDS011;67434;50.956;6.918;2023-05-14T10:38:38;6.63;;;5.93;;
49472;SDS011;67434;50.956;6.918;2023-05-14T10:41:22;6.63;;;5.88;;
49472;SDS011;67434;50.956;6.918;2023-05-14T10:43:48;6.40;;;4.50;;
49472;SDS011;67434;50.956;6.918;2023-05-14T10:46:14;5.25;;;4.35;;
49472;SDS011;67434;50.956;6.918;2023-05-14T10:48:41;4.38;;;3.95;;
49472;SDS011;67434;50.956;6.918;2023-05-14T10:51:10;5.90;;;4.90;;
49472;SDS011;67434;50.956;6.918;2023-05-14T10:56:07;5.32;;;4.82;;
49472;SDS011;67434;50.956;6.918;2023-05-14T10:58:38;7.45;;;4.68;;
49472;SDS011;67434;50.956;6.918;2023-05-14T11:01:06;6.40;;;4.75;;
49472;SDS011;67434;50.956;6.918;2023-05-14T11:03:42;5.10;;;4.60;;
49472;SDS011;67434;50.956;6.918;2023-05-14T11:06:27;6.32;;;5.05;;
49472;SDS011;67434;50.956;6.918;2023-05-14T11:08:53;7.18;;;5.57;;
49472;SDS011;67434;50.956;6.918;2023-05-14T11:11:19;8.02;;;6.55;;
49472;SDS011;67434;50.956;6.918;2023-05-14T11:13:44;7.10;;;6.40;;
49472;SDS011;67434;50.956;6.918;2023-05-14T11:16:11;9.13;;;5.85;;
49472;SDS011;67434;50.956;6.918;2023-05-14T11:18:38;6.07;;;5.50;;
49472;SDS011;67434;50.956;6.918;2023-05-14T11:21:05;10.68;;;6.30;;
49472;SDS011;67434;50.956;6.918;2023-05-14T11:23:31;8.70;;;5.80;;
49472;SDS011;67434;50.956;6.918;2023-05-14T11:25:56;10.02;;;4.82;;
49472;SDS011;67434;50.956;6.918;2023-05-14T11:28:22;6.28;;;4.43;;
49472;SDS011;67434;50.956;6.918;2023-05-14T11:30:49;7.15;;;5.70;;
49472;SDS011;67434;50.956;6.918;2023-05-14T11:33:15;8.10;;;6.63;;
49472;SDS011;67434;50.956;6.918;2023-05-14T11:35:41;7.93;;;6.07;;
49472;SDS011;67434;50.956;6.918;2023-05-14T11:38:22;8.00;;;5.60;;
49472;SDS011;67434;50.956;6.918;2023-05-14T11:41:06;6.78;;;4.22;;
49472;SDS011;67434;50.956;6.918;2023-05-14T11:43:31;6.78;;;4.78;;
49472;SDS011;67434;50.956;6.918;2023-05-14T11:46:00;5.00;;;4.50;;
49472;SDS011;67434;50.956;6.918;2023-05-14T11:48:28;6.05;;;5.38;;
49472;SDS011;67434;50.956;6.918;2023-05-14T11:50:53;8.20;;;5.57;;
49472;SDS011;67434;50.956;6.918;2023-05-14T11:53:19;8.70;;;7.07;;
49472;SDS011;67434;50.956;6.918;2023-05-14T11:55:49;6.25;;;4.80;;
49472;SDS011;67434;50.956;6.918;2023-05-14T11:58:15;5.53;;;5.00;;
49472;SDS011;67434;50.956;6.918;2023-05-14T12:00:48;6.13;;;5.53;;
49472;SDS011;67434;50.956;6.918;2023-05-14T12:03:33;10.18;;;5.63;;
49472;SDS011;67434;50.956;6.918;2023-05-14T12:05:59;8.38;;;5.90;;
49472;SDS011;67434;50.956;6.918;2023-05-14T12:08:29;6.93;;;5.28;;
49472;SDS011;67434;50.956;6.918;2023-05-14T12:10:57;6.65;;;4.97;;
49472;SDS011;67434;50.956;6.918;2023-05-14T12:13:30;6.43;;;4.30;;
49472;SDS011;67434;50.956;6.918;2023-05-14T12:15:56;6.13;;;5.50;;
49472;SDS011;67434;50.956;6.918;2023-05-14T12:18:26;7.63;;;5.47;;
49472;SDS011;67434;50.956;6.918;2023-05-14T12:20:53;12.65;;;6.22;;
49472;SDS011;67434;50.956;6.918;2023-05-14T12:23:25;7.43;;;5.72;;
49472;SDS011;67434;50.956;6.918;2023-05-14T12:25:51;9.48;;;5.20;;
49472;SDS011;67434;50.956;6.918;2023-05-14T12:28:17;5.47;;;4.32;;
49472;SDS011;67434;50.956;6.918;2023-05-14T12:30:43;5.85;;;4.45;;
49472;SDS011;67434;50.956;6.918;2023-05-14T12:33:09;7.35;;;4.47;;
49472;SDS011;67434;50.956;6.918;2023-05-14T12:35:35;6.00;;;5.38;;
49472;SDS011;67434;50.956;6.918;2023-05-14T12:38:01;7.68;;;4.97;;
49472;SDS011;67434;50.956;6.918;2023-05-14T12:40:27;8.02;;;4.80;;
49472;SDS011;67434;50.956;6.918;2023-05-14T12:42:52;4.65;;;3.00;;
49472;SDS011;67434;50.956;6.918;2023-05-14T12:45:17;3.38;;;2.30;;
49472;SDS011;67434;50.956;6.918;2023-05-14T12:47:43;2.28;;;2.08;;
49472;SDS011;67434;50.956;6.918;2023-05-14T12:50:09;3.97;;;2.13;;
49472;SDS011;67434;50.956;6.918;2023-05-14T12:52:35;4.20;;;2.35;;
49472;SDS011;67434;50.956;6.918;2023-05-14T12:55:02;2.05;;;1.80;;
49472;SDS011;67434;50.956;6.918;2023-05-14T12:57:28;5.88;;;2.13;;
49472;SDS011;67434;50.956;6.918;2023-05-14T12:59:54;3.20;;;1.92;;
49472;SDS011;67434;50.956;6.918;2023-05-14T13:02:20;2.45;;;2.08;;
49472;SDS011;67434;50.956;6.918;2023-05-14T13:04:46;4.90;;;2.50;;
49472;SDS011;67434;50.956;6.918;2023-05-14T13:07:14;5.10;;;2.30;;
49472;SDS011;67434;50.956;6.918;2023-05-14T13:09:39;3.60;;;2.10;;
49472;SDS011;67434;50.956;6.918;2023-05-14T13:12:05;2.10;;;1.80;;
49472;SDS011;67434;50.956;6.918;2023-05-14T13:14:30;3.35;;;2.22;;
49472;SDS011;67434;50.956;6.918;2023-05-14T13:16:56;4.53;;;2.22;;
49472;SDS011;67434;50.956;6.918;2023-05-14T13:19:21;3.20;;;1.92;;
49472;SDS011;67434;50.956;6.918;2023-05-14T13:21:46;2.10;;;1.70;;
49472;SDS011;67434;50.956;6.918;2023-05-14T13:24:12;2.00;;;1.80;;
49472;SDS011;67434;50.956;6.918;2023-05-14T13:26:37;4.97;;;2.17;;
49472;SDS011;67434;50.956;6.918;2023-05-14T13:29:02;2.58;;;1.80;;
49472;SDS011;67434;50.956;6.918;2023-05-14T13:31:31;2.22;;;1.85;;
49472;SDS011;67434;50.956;6.918;2023-05-14T13:33:56;3.25;;;1.70;;
49472;SDS011;67434;50.956;6.918;2023-05-14T13:36:23;4.82;;;3.00;;
49472;SDS011;67434;50.956;6.918;2023-05-14T13:38:48;2.47;;;1.90;;
49472;SDS011;67434;50.956;6.918;2023-05-14T13:41:14;6.25;;;2.63;;
49472;SDS011;67434;50.956;6.918;2023-05-14T13:43:39;2.17;;;1.95;;
49472;SDS011;67434;50.956;6.918;2023-05-14T13:46:04;3.75;;;2.03;;
49472;SDS011;67434;50.956;6.918;2023-05-14T13:48:30;4.47;;;2.08;;
49472;SDS011;67434;50.956;6.918;2023-05-14T13:50:56;2.78;;;2.10;;
49472;SDS011;67434;50.956;6.918;2023-05-14T13:53:22;2.03;;;1.85;;
49472;SDS011;67434;50.956;6.918;2023-05-14T13:55:48;3.28;;;2.10;;
49472;SDS011;67434;50.956;6.918;2023-05-14T13:58:14;3.58;;;2.55;;
49472;SDS011;67434;50.956;6.918;2023-05-14T14:00:40;2.20;;;1.90;;
49472;SDS011;67434;50.956;6.918;2023-05-14T14:03:06;2.13;;;1.83;;
49472;SDS011;67434;50.956;6.918;2023-05-14T14:05:32;3.33;;;2.00;;
49472;SDS011;67434;50.956;6.918;2023-05-14T14:07:59;1.52;;;1.40;;
49472;SDS011;67434;50.956;6.918;2023-05-14T14:10:24;3.50;;;1.88;;
49472;SDS011;67434;50.956;6.918;2023-05-14T14:12:50;2.88;;;2.20;;
49472;SDS011;67434;50.956;6.918;2023-05-14T14:15:16;1.60;;;1.40;;
49472;SDS011;67434;50.956;6.918;2023-05-14T14:17:41;3.00;;;1.80;;
49472;SDS011;67434;50.956;6.918;2023-05-14T14:20:07;4.18;;;2.58;;
49472;SDS011;67434;50.956;6.918;2023-05-14T14:22:33;3.53;;;1.77;;
49472;SDS011;67434;50.956;6.918;2023-05-14T14:24:59;3.10;;;1.65;;
49472;SDS011;67434;50.956;6.918;2023-05-14T14:27:24;3.22;;;1.85;;
49472;SDS011;67434;50.956;6.918;2023-05-14T14:29:50;2.33;;;2.00;;
49472;SDS011;67434;50.956;6.918;2023-05-14T14:32:15;2.75;;;2.00;;
49472;SDS011;67434;50.956;6.918;2023-05-14T14:34:40;4.15;;;2.60;;
49472;SDS011;67434;50.956;6.918;2023-05-14T14:37:06;3.08;;;2.78;;
49472;SDS011;67434;50.956;6.918;2023-05-14T14:39:31;2.67;;;2.30;;
49472;SDS011;67434;50.956;6.918;2023-05-14T14:41:57;2.42;;;2.10;;
49472;SDS011;67434;50.956;6.918;2023-05-14T14:44:22;3.25;;;1.88;;